ADDS METAR Data INFO
IDs: Format: Raw Decoded Include TAF

Data at: 0210 UTC 14 Dec 2017

METAR for:KOCF (Ocala Rgnl, FL, US)
Text:KOCF 140151Z AUTO 21004KT 10SM CLR 06/01 A3007 RMK AO2 SLP185 T00610006
Temperature: 6.1°C ( 43°F)
Dewpoint: 0.6°C ( 33°F) [RH = 68%]
Pressure (altimeter):30.07 inches Hg (1018.4 mb) [Sea level pressure: 1018.5 mb]
Winds:from the SSW (210 degrees) at 5 MPH (4 knots; 2.1 m/s)
Visibility:10 or more sm (16+ km)
Ceiling:at least 12,000 feet AGL
Clouds:sky clear below 12,000 feet AGL
QC Flag:automated observation with no human augmentation